sensor_id;sensor_type;location;lat;lon;timestamp;pressure;altitude;pressure_sealevel;temperature;humidity
51289;BME280;37372;52.294;5.152;2022-09-13T00:00:43;101090.66;;;17.34;100.00
51289;BME280;37372;52.294;5.152;2022-09-13T00:03:10;101086.25;;;17.33;100.00
51289;BME280;37372;52.294;5.152;2022-09-13T00:05:37;101075.00;;;17.30;100.00
51289;BME280;37372;52.294;5.152;2022-09-13T00:08:03;101082.72;;;17.29;100.00
51289;BME280;37372;52.294;5.152;2022-09-13T00:10:29;101085.22;;;17.27;100.00
51289;BME280;37372;52.294;5.152;2022-09-13T00:12:55;101079.25;;;17.25;100.00
51289;BME280;37372;52.294;5.152;2022-09-13T00:15:21;101091.03;;;17.24;100.00
51289;BME280;37372;52.294;5.152;2022-09-13T00:17:47;101085.81;;;17.22;100.00
51289;BME280;37372;52.294;5.152;2022-09-13T00:20:12;101095.56;;;17.21;100.00
51289;BME280;37372;52.294;5.152;2022-09-13T00:22:38;101092.38;;;17.19;100.00
51289;BME280;37372;52.294;5.152;2022-09-13T00:25:05;101081.97;;;17.16;100.00
51289;BME280;37372;52.294;5.152;2022-09-13T00:27:35;101083.53;;;17.17;100.00
51289;BME280;37372;52.294;5.152;2022-09-13T00:30:05;101080.25;;;17.19;100.00
51289;BME280;37372;52.294;5.152;2022-09-13T00:32:31;101076.16;;;17.20;100.00
51289;BME280;37372;52.294;5.152;2022-09-13T00:34:57;101081.03;;;17.19;100.00
51289;BME280;37372;52.294;5.152;2022-09-13T00:37:22;101082.75;;;17.17;100.00
51289;BME280;37372;52.294;5.152;2022-09-13T00:39:48;101077.56;;;17.15;100.00
51289;BME280;37372;52.294;5.152;2022-09-13T00:42:14;101086.50;;;17.13;100.00
51289;BME280;37372;52.294;5.152;2022-09-13T00:47:56;101076.53;;;17.09;100.00
51289;BME280;37372;52.294;5.152;2022-09-13T00:50:38;101075.75;;;17.08;100.00
51289;BME280;37372;52.294;5.152;2022-09-13T00:53:30;101076.19;;;17.07;100.00
51289;BME280;37372;52.294;5.152;2022-09-13T00:56:05;101076.19;;;17.07;100.00
51289;BME280;37372;52.294;5.152;2022-09-13T00:58:36;101070.19;;;17.05;100.00
51289;BME280;37372;52.294;5.152;2022-09-13T01:01:04;101067.81;;;17.03;100.00
51289;BME280;37372;52.294;5.152;2022-09-13T01:03:34;101067.03;;;17.03;100.00
51289;BME280;37372;52.294;5.152;2022-09-13T01:06:03;101063.84;;;17.01;100.00
51289;BME280;37372;52.294;5.152;2022-09-13T01:08:34;101072.78;;;16.99;100.00
51289;BME280;37372;52.294;5.152;2022-09-13T01:11:01;101064.75;;;16.98;100.00
51289;BME280;37372;52.294;5.152;2022-09-13T01:13:30;101070.88;;;16.96;100.00
51289;BME280;37372;52.294;5.152;2022-09-13T01:15:56;101068.16;;;16.92;100.00
51289;BME280;37372;52.294;5.152;2022-09-13T01:18:22;101073.03;;;16.92;100.00
51289;BME280;37372;52.294;5.152;2022-09-13T01:24:19;101076.53;;;16.83;100.00
51289;BME280;37372;52.294;5.152;2022-09-13T01:35:33;101059.16;;;16.68;100.00
51289;BME280;37372;52.294;5.152;2022-09-13T01:43:45;101057.38;;;16.75;100.00
51289;BME280;37372;52.294;5.152;2022-09-13T01:46:21;101054.06;;;16.76;100.00
51289;BME280;37372;52.294;5.152;2022-09-13T01:51:55;101065.00;;;16.78;100.00
51289;BME280;37372;52.294;5.152;2022-09-13T02:00:17;101062.03;;;16.81;100.00
51289;BME280;37372;52.294;5.152;2022-09-13T02:02:53;101067.69;;;16.81;100.00
51289;BME280;37372;52.294;5.152;2022-09-13T02:05:36;101063.16;;;16.84;100.00
51289;BME280;37372;52.294;5.152;2022-09-13T02:08:17;101054.22;;;16.85;100.00
51289;BME280;37372;52.294;5.152;2022-09-13T02:10:48;101050.25;;;16.83;100.00
51289;BME280;37372;52.294;5.152;2022-09-13T02:13:18;101043.03;;;16.82;100.00
51289;BME280;37372;52.294;5.152;2022-09-13T02:15:48;101049.91;;;16.81;100.00
51289;BME280;37372;52.294;5.152;2022-09-13T02:18:24;101047.88;;;16.81;100.00
51289;BME280;37372;52.294;5.152;2022-09-13T02:20:53;101039.38;;;16.81;100.00
51289;BME280;37372;52.294;5.152;2022-09-13T02:23:28;101050.69;;;16.81;100.00
51289;BME280;37372;52.294;5.152;2022-09-13T02:25:58;101047.88;;;16.81;100.00
51289;BME280;37372;52.294;5.152;2022-09-13T02:28:34;101045.84;;;16.82;100.00
51289;BME280;37372;52.294;5.152;2022-09-13T02:31:03;101045.84;;;16.82;100.00
51289;BME280;37372;52.294;5.152;2022-09-13T02:33:43;101042.53;;;16.83;100.00
51289;BME280;37372;52.294;5.152;2022-09-13T02:36:15;101043.34;;;16.84;100.00
51289;BME280;37372;52.294;5.152;2022-09-13T02:38:50;101049.34;;;16.86;100.00
51289;BME280;37372;52.294;5.152;2022-09-13T02:41:18;101041.63;;;16.86;100.00
51289;BME280;37372;52.294;5.152;2022-09-13T02:43:50;101041.63;;;16.86;100.00
51289;BME280;37372;52.294;5.152;2022-09-13T02:49:00;101037.78;;;16.80;100.00
51289;BME280;37372;52.294;5.152;2022-09-13T02:54:26;101041.38;;;16.68;100.00
51289;BME280;37372;52.294;5.152;2022-09-13T02:56:59;101048.41;;;16.63;100.00
51289;BME280;37372;52.294;5.152;2022-09-13T02:59:26;101052.94;;;16.61;100.00
51289;BME280;37372;52.294;5.152;2022-09-13T03:02:04;101044.09;;;16.59;100.00
51289;BME280;37372;52.294;5.152;2022-09-13T03:04:32;101042.66;;;16.54;100.00
51289;BME280;37372;52.294;5.152;2022-09-13T03:06:57;101043.53;;;16.51;100.00
51289;BME280;37372;52.294;5.152;2022-09-13T03:09:23;101035.94;;;16.48;100.00
51289;BME280;37372;52.294;5.152;2022-09-13T03:12:08;101038.41;;;16.46;100.00
51289;BME280;37372;52.294;5.152;2022-09-13T03:14:54;101044.56;;;16.44;100.00
51289;BME280;37372;52.294;5.152;2022-09-13T03:28:39;101053.97;;;16.54;100.00
51289;BME280;37372;52.294;5.152;2022-09-13T03:31:17;101041.03;;;16.53;100.00
51289;BME280;37372;52.294;5.152;2022-09-13T03:33:56;101041.50;;;16.52;100.00
51289;BME280;37372;52.294;5.152;2022-09-13T03:39:02;101037.28;;;16.43;100.00
51289;BME280;37372;52.294;5.152;2022-09-13T03:41:35;101044.78;;;16.37;100.00
51289;BME280;37372;52.294;5.152;2022-09-13T03:44:10;101042.06;;;16.34;100.00
51289;BME280;37372;52.294;5.152;2022-09-13T03:46:41;101042.50;;;16.32;100.00
51289;BME280;37372;52.294;5.152;2022-09-13T03:49:12;101039.66;;;16.32;100.00
51289;BME280;37372;52.294;5.152;2022-09-13T03:51:38;101038.53;;;16.30;100.00
51289;BME280;37372;52.294;5.152;2022-09-13T03:54:09;101024.03;;;16.27;100.00
51289;BME280;37372;52.294;5.152;2022-09-13T03:56:36;101032.09;;;16.29;100.00
51289;BME280;37372;52.294;5.152;2022-09-13T03:59:01;101035.13;;;16.22;100.00
51289;BME280;37372;52.294;5.152;2022-09-13T04:01:27;101035.31;;;16.15;100.00
51289;BME280;37372;52.294;5.152;2022-09-13T04:03:52;101038.72;;;16.10;100.00
51289;BME280;37372;52.294;5.152;2022-09-13T04:06:18;101042.09;;;16.04;100.00
51289;BME280;37372;52.294;5.152;2022-09-13T04:08:43;101044.25;;;16.00;100.00
51289;BME280;37372;52.294;5.152;2022-09-13T04:11:09;101039.47;;;15.97;100.00
51289;BME280;37372;52.294;5.152;2022-09-13T04:13:36;101041.63;;;15.93;100.00
51289;BME280;37372;52.294;5.152;2022-09-13T04:16:03;101045.34;;;15.90;100.00
51289;BME280;37372;52.294;5.152;2022-09-13T04:18:29;101054.72;;;15.87;100.00
51289;BME280;37372;52.294;5.152;2022-09-13T04:20:55;101058.44;;;15.84;100.00
51289;BME280;37372;52.294;5.152;2022-09-13T04:23:21;101054.47;;;15.81;100.00
51289;BME280;37372;52.294;5.152;2022-09-13T04:25:47;101056.94;;;15.79;100.00
51289;BME280;37372;52.294;5.152;2022-09-13T04:28:12;101060.25;;;15.78;100.00
51289;BME280;37372;52.294;5.152;2022-09-13T04:30:38;101063.50;;;15.76;100.00
51289;BME280;37372;52.294;5.152;2022-09-13T04:33:03;101062.72;;;15.76;100.00
51289;BME280;37372;52.294;5.152;2022-09-13T04:35:28;101057.94;;;15.73;100.00
51289;BME280;37372;52.294;5.152;2022-09-13T04:37:55;101059.63;;;15.70;100.00
51289;BME280;37372;52.294;5.152;2022-09-13T04:40:22;101058.81;;;15.70;100.00
51289;BME280;37372;52.294;5.152;2022-09-13T04:42:47;101065.34;;;15.67;100.00
51289;BME280;37372;52.294;5.152;2022-09-13T04:45:13;101058.13;;;15.66;100.00
51289;BME280;37372;52.294;5.152;2022-09-13T04:47:38;101052.47;;;15.66;100.00
51289;BME280;37372;52.294;5.152;2022-09-13T04:50:04;101052.47;;;15.66;100.00
51289;BME280;37372;52.294;5.152;2022-09-13T04:52:31;101060.44;;;15.71;100.00
51289;BME280;37372;52.294;5.152;2022-09-13T04:54:56;101061.13;;;15.75;100.00
51289;BME280;37372;52.294;5.152;2022-09-13T04:57:25;101068.25;;;15.79;100.00
51289;BME280;37372;52.294;5.152;2022-09-13T04:59:51;101070.66;;;15.81;100.00
51289;BME280;37372;52.294;5.152;2022-09-13T05:02:16;101065.00;;;15.81;100.00
51289;BME280;37372;52.294;5.152;2022-09-13T05:04:41;101073.84;;;15.83;100.00
51289;BME280;37372;52.294;5.152;2022-09-13T05:07:07;101077.34;;;15.87;100.00
51289;BME280;37372;52.294;5.152;2022-09-13T05:09:32;101072.75;;;15.93;100.00
51289;BME280;37372;52.294;5.152;2022-09-13T05:11:57;101078.19;;;16.00;100.00
51289;BME280;37372;52.294;5.152;2022-09-13T05:14:24;101077.97;;;16.08;100.00
51289;BME280;37372;52.294;5.152;2022-09-13T05:16:49;101077.78;;;16.15;100.00
51289;BME280;37372;52.294;5.152;2022-09-13T05:19:15;101080.84;;;16.20;100.00
51289;BME280;37372;52.294;5.152;2022-09-13T05:21:40;101077.47;;;16.25;100.00
51289;BME280;37372;52.294;5.152;2022-09-13T05:24:05;101085.41;;;16.31;100.00
51289;BME280;37372;52.294;5.152;2022-09-13T05:26:31;101088.47;;;16.36;100.00
51289;BME280;37372;52.294;5.152;2022-09-13T05:29:00;101094.38;;;16.42;100.00
51289;BME280;37372;52.294;5.152;2022-09-13T05:31:32;101093.81;;;16.47;100.00
51289;BME280;37372;52.294;5.152;2022-09-13T05:34:04;101092.00;;;16.53;100.00
51289;BME280;37372;52.294;5.152;2022-09-13T05:36:30;101087.81;;;16.58;100.00
51289;BME280;37372;52.294;5.152;2022-09-13T05:38:56;101092.59;;;16.61;100.00
51289;BME280;37372;52.294;5.152;2022-09-13T05:41:21;101094.06;;;16.65;100.00
51289;BME280;37372;52.294;5.152;2022-09-13T05:43:47;101100.88;;;16.68;100.00
51289;BME280;37372;52.294;5.152;2022-09-13T05:46:14;101102.78;;;16.71;100.00
51289;BME280;37372;52.294;5.152;2022-09-13T05:48:40;101103.47;;;16.75;100.00
51289;BME280;37372;52.294;5.152;2022-09-13T05:51:10;101093.66;;;16.80;100.00
51289;BME280;37372;52.294;5.152;2022-09-13T05:53:37;101100.81;;;16.84;100.00
51289;BME280;37372;52.294;5.152;2022-09-13T05:56:05;101105.56;;;16.87;100.00
51289;BME280;37372;52.294;5.152;2022-09-13T05:58:31;101113.28;;;16.87;100.00
51289;BME280;37372;52.294;5.152;2022-09-13T06:00:57;101113.59;;;16.89;100.00
51289;BME280;37372;52.294;5.152;2022-09-13T06:03:23;101121.31;;;16.88;100.00
51289;BME280;37372;52.294;5.152;2022-09-13T06:05:48;101123.34;;;16.88;100.00
51289;BME280;37372;52.294;5.152;2022-09-13T06:08:14;101127.44;;;16.87;100.00
51289;BME280;37372;52.294;5.152;2022-09-13T06:10:40;101122.56;;;16.87;100.00
51289;BME280;37372;52.294;5.152;2022-09-13T06:13:05;101126.53;;;16.90;100.00
51289;BME280;37372;52.294;5.152;2022-09-13T06:15:31;101129.59;;;16.96;100.00
51289;BME280;37372;52.294;5.152;2022-09-13T06:17:56;101129.59;;;16.96;100.00
51289;BME280;37372;52.294;5.152;2022-09-13T06:20:22;101126.19;;;17.01;100.00
51289;BME280;37372;52.294;5.152;2022-09-13T06:22:48;101122.78;;;17.06;100.00
51289;BME280;37372;52.294;5.152;2022-09-13T06:25:13;101125.84;;;17.11;100.00
51289;BME280;37372;52.294;5.152;2022-09-13T06:27:39;101134.13;;;17.19;100.00
51289;BME280;37372;52.294;5.152;2022-09-13T06:30:05;101128.66;;;17.24;100.00
51289;BME280;37372;52.294;5.152;2022-09-13T06:32:33;101131.63;;;17.33;100.00
51289;BME280;37372;52.294;5.152;2022-09-13T06:34:58;101135.34;;;17.43;100.00
51289;BME280;37372;52.294;5.152;2022-09-13T06:37:24;101135.13;;;17.50;100.00
51289;BME280;37372;52.294;5.152;2022-09-13T06:39:49;101131.22;;;17.57;100.00
51289;BME280;37372;52.294;5.152;2022-09-13T06:42:15;101133.97;;;17.61;100.00
51289;BME280;37372;52.294;5.152;2022-09-13T06:44:40;101119.19;;;17.66;100.00
51289;BME280;37372;52.294;5.152;2022-09-13T06:47:05;101114.66;;;17.68;100.00
51289;BME280;37372;52.294;5.152;2022-09-13T06:49:31;101122.88;;;17.75;100.00
51289;BME280;37372;52.294;5.152;2022-09-13T06:51:56;101128.69;;;17.85;100.00
51289;BME280;37372;52.294;5.152;2022-09-13T06:54:22;101123.69;;;17.89;100.00
51289;BME280;37372;52.294;5.152;2022-09-13T06:56:47;101125.59;;;17.92;100.00
51289;BME280;37372;52.294;5.152;2022-09-13T06:59:12;101120.91;;;17.98;100.00
51289;BME280;37372;52.294;5.152;2022-09-13T07:01:40;101125.41;;;18.08;100.00
51289;BME280;37372;52.294;5.152;2022-09-13T07:04:13;101124.56;;;18.20;100.00
51289;BME280;37372;52.294;5.152;2022-09-13T07:06:41;101122.06;;;18.22;100.00
51289;BME280;37372;52.294;5.152;2022-09-13T07:09:10;101118.88;;;18.20;100.00
51289;BME280;37372;52.294;5.152;2022-09-13T07:11:37;101121.81;;;18.30;100.00
51289;BME280;37372;52.294;5.152;2022-09-13T07:14:04;101121.91;;;18.26;100.00
51289;BME280;37372;52.294;5.152;2022-09-13T07:16:32;101132.81;;;18.28;100.00
51289;BME280;37372;52.294;5.152;2022-09-13T07:19:03;101126.56;;;18.33;100.00
51289;BME280;37372;52.294;5.152;2022-09-13T07:21:30;101130.38;;;18.39;100.00
51289;BME280;37372;52.294;5.152;2022-09-13T07:23:56;101134.53;;;18.47;100.00
51289;BME280;37372;52.294;5.152;2022-09-13T07:26:23;101127.06;;;18.62;100.00
51289;BME280;37372;52.294;5.152;2022-09-13T07:28:51;101126.25;;;18.84;100.00
51289;BME280;37372;52.294;5.152;2022-09-13T07:31:19;101121.22;;;18.88;100.00
51289;BME280;37372;52.294;5.152;2022-09-13T07:33:46;101121.06;;;18.92;100.00
51289;BME280;37372;52.294;5.152;2022-09-13T07:36:12;101124.09;;;18.97;100.00
51289;BME280;37372;52.294;5.152;2022-09-13T07:38:39;101125.34;;;18.96;100.00
51289;BME280;37372;52.294;5.152;2022-09-13T07:41:06;101134.66;;;18.97;100.00
51289;BME280;37372;52.294;5.152;2022-09-13T07:43:35;101133.44;;;19.07;100.00
51289;BME280;37372;52.294;5.152;2022-09-13T07:46:03;101136.97;;;19.20;100.00
51289;BME280;37372;52.294;5.152;2022-09-13T07:48:30;101143.16;;;19.28;100.00
51289;BME280;37372;52.294;5.152;2022-09-13T07:51:16;101147.63;;;19.38;100.00
51289;BME280;37372;52.294;5.152;2022-09-13T07:53:44;101146.38;;;19.39;100.00
51289;BME280;37372;52.294;5.152;2022-09-13T07:56:15;101153.31;;;19.38;100.00
51289;BME280;37372;52.294;5.152;2022-09-13T07:58:42;101152.69;;;19.34;100.00
51289;BME280;37372;52.294;5.152;2022-09-13T08:01:55;101156.63;;;19.37;100.00
51289;BME280;37372;52.294;5.152;2022-09-13T08:04:16;101156.47;;;19.40;100.00
51289;BME280;37372;52.294;5.152;2022-09-13T08:06:43;101154.84;;;19.30;100.00
51289;BME280;37372;52.294;5.152;2022-09-13T08:09:09;101157.19;;;19.22;100.00
51289;BME280;37372;52.294;5.152;2022-09-13T08:11:38;101159.88;;;19.17;100.00
51289;BME280;37372;52.294;5.152;2022-09-13T08:14:05;101157.50;;;19.15;100.00
51289;BME280;37372;52.294;5.152;2022-09-13T08:16:32;101147.84;;;19.13;100.00
51289;BME280;37372;52.294;5.152;2022-09-13T08:18:59;101151.56;;;19.00;100.00
51289;BME280;37372;52.294;5.152;2022-09-13T08:21:27;101152.19;;;18.95;100.00
51289;BME280;37372;52.294;5.152;2022-09-13T08:23:55;101149.34;;;18.95;100.00
51289;BME280;37372;52.294;5.152;2022-09-13T08:26:23;101151.63;;;19.09;100.00
51289;BME280;37372;52.294;5.152;2022-09-13T08:28:54;101171.25;;;19.17;100.00
51289;BME280;37372;52.294;5.152;2022-09-13T08:31:20;101169.56;;;19.28;100.00
51289;BME280;37372;52.294;5.152;2022-09-13T08:33:47;101163.56;;;19.26;100.00
51289;BME280;37372;52.294;5.152;2022-09-13T08:36:13;101166.84;;;19.25;100.00
51289;BME280;37372;52.294;5.152;2022-09-13T08:38:38;101161.53;;;19.36;100.00
51289;BME280;37372;52.294;5.152;2022-09-13T08:41:40;101167.69;;;19.35;100.00
51289;BME280;37372;52.294;5.152;2022-09-13T08:44:35;101177.31;;;19.37;99.56
51289;BME280;37372;52.294;5.152;2022-09-13T08:49:44;101180.50;;;19.48;98.83
51289;BME280;37372;52.294;5.152;2022-09-13T08:54:45;101171.94;;;19.89;97.28
51289;BME280;37372;52.294;5.152;2022-09-13T08:57:15;101158.97;;;20.06;94.99
51289;BME280;37372;52.294;5.152;2022-09-13T08:59:54;101169.09;;;20.07;95.37
51289;BME280;37372;52.294;5.152;2022-09-13T09:02:47;101167.22;;;20.13;96.32
51289;BME280;37372;52.294;5.152;2022-09-13T09:05:18;101174.94;;;19.85;97.48
51289;BME280;37372;52.294;5.152;2022-09-13T09:08:05;101168.91;;;19.74;96.44
51289;BME280;37372;52.294;5.152;2022-09-13T09:10:46;101184.06;;;19.62;95.88
51289;BME280;37372;52.294;5.152;2022-09-13T09:13:29;101190.03;;;19.55;97.77
51289;BME280;37372;52.294;5.152;2022-09-13T09:16:04;101182.22;;;19.77;95.95
51289;BME280;37372;52.294;5.152;2022-09-13T09:18:37;101180.00;;;19.81;96.26
51289;BME280;37372;52.294;5.152;2022-09-13T09:21:09;101182.50;;;19.79;96.03
51289;BME280;37372;52.294;5.152;2022-09-13T09:23:53;101183.47;;;19.76;95.46
51289;BME280;37372;52.294;5.152;2022-09-13T09:26:23;101184.41;;;19.73;96.05
51289;BME280;37372;52.294;5.152;2022-09-13T09:37:23;101181.72;;;19.79;97.16
51289;BME280;37372;52.294;5.152;2022-09-13T09:39:51;101186.81;;;19.93;95.33
51289;BME280;37372;52.294;5.152;2022-09-13T09:42:21;101183.19;;;20.02;93.44
51289;BME280;37372;52.294;5.152;2022-09-13T09:44:55;101176.56;;;20.23;93.98
51289;BME280;37372;52.294;5.152;2022-09-13T09:47:23;101180.03;;;20.09;87.35
51289;BME280;37372;52.294;5.152;2022-09-13T09:49:54;101180.97;;;20.43;87.77
51289;BME280;37372;52.294;5.152;2022-09-13T09:55:25;101171.16;;;20.34;87.20
51289;BME280;37372;52.294;5.152;2022-09-13T09:57:53;101175.25;;;20.52;86.53
51289;BME280;37372;52.294;5.152;2022-09-13T10:00:20;101165.44;;;20.53;86.23
51289;BME280;37372;52.294;5.152;2022-09-13T10:02:47;101158.63;;;20.50;86.66
51289;BME280;37372;52.294;5.152;2022-09-13T10:05:17;101162.28;;;20.51;88.30
51289;BME280;37372;52.294;5.152;2022-09-13T10:07:52;101164.63;;;20.71;86.03
51289;BME280;37372;52.294;5.152;2022-09-13T10:10:43;101156.75;;;20.47;89.63
51289;BME280;37372;52.294;5.152;2022-09-13T10:13:19;101157.56;;;20.20;88.06
51289;BME280;37372;52.294;5.152;2022-09-13T10:16:02;101162.78;;;20.03;88.04
51289;BME280;37372;52.294;5.152;2022-09-13T10:18:33;101163.88;;;19.87;88.46
51289;BME280;37372;52.294;5.152;2022-09-13T10:21:22;101164.03;;;19.75;87.37
51289;BME280;37372;52.294;5.152;2022-09-13T10:23:48;101152.81;;;19.80;87.98
51289;BME280;37372;52.294;5.152;2022-09-13T10:26:19;101163.25;;;19.83;87.85
51289;BME280;37372;52.294;5.152;2022-09-13T10:29:07;101159.28;;;19.81;86.26
51289;BME280;37372;52.294;5.152;2022-09-13T10:31:38;101152.78;;;19.71;86.33
51289;BME280;37372;52.294;5.152;2022-09-13T10:37:14;101158.97;;;19.97;85.87
51289;BME280;37372;52.294;5.152;2022-09-13T10:40:28;101168.63;;;20.00;82.81
51289;BME280;37372;52.294;5.152;2022-09-13T10:42:59;101167.38;;;20.10;83.95
51289;BME280;37372;52.294;5.152;2022-09-13T10:45:28;101160.06;;;19.81;83.54
51289;BME280;37372;52.294;5.152;2022-09-13T10:48:04;101165.59;;;19.76;86.09
51289;BME280;37372;52.294;5.152;2022-09-13T10:50:34;101163.25;;;19.83;83.96
51289;BME280;37372;52.294;5.152;2022-09-13T10:53:00;101168.94;;;20.02;83.75
51289;BME280;37372;52.294;5.152;2022-09-13T10:55:28;101167.03;;;20.17;83.24
51289;BME280;37372;52.294;5.152;2022-09-13T11:03:23;101166.41;;;20.22;81.40
51289;BME280;37372;52.294;5.152;2022-09-13T11:08:41;101168.63;;;20.36;78.40
51289;BME280;37372;52.294;5.152;2022-09-13T11:11:39;101157.56;;;20.29;78.15
51289;BME280;37372;52.294;5.152;2022-09-13T11:17:24;101154.38;;;20.46;76.35
51289;BME280;37372;52.294;5.152;2022-09-13T11:20:04;101153.78;;;20.23;77.12
51289;BME280;37372;52.294;5.152;2022-09-13T11:26:05;101136.03;;;20.28;79.53
51289;BME280;37372;52.294;5.152;2022-09-13T11:31:41;101149.31;;;19.76;77.71
51289;BME280;37372;52.294;5.152;2022-09-13T11:37:31;101153.44;;;19.75;78.41
51289;BME280;37372;52.294;5.152;2022-09-13T11:40:31;101142.69;;;19.98;78.75
51289;BME280;37372;52.294;5.152;2022-09-13T11:45:37;101140.31;;;20.33;74.87
51289;BME280;37372;52.294;5.152;2022-09-13T11:48:23;101133.81;;;20.42;77.06
51289;BME280;37372;52.294;5.152;2022-09-13T11:53:56;101140.00;;;20.03;74.72
51289;BME280;37372;52.294;5.152;2022-09-13T11:56:29;101138.91;;;20.10;75.15
51289;BME280;37372;52.294;5.152;2022-09-13T11:59:07;101135.75;;;20.08;75.19
51289;BME280;37372;52.294;5.152;2022-09-13T12:01:40;101141.88;;;19.79;75.02
51289;BME280;37372;52.294;5.152;2022-09-13T12:04:21;101136.66;;;19.86;74.97
51289;BME280;37372;52.294;5.152;2022-09-13T12:06:54;101133.50;;;19.84;75.91
51289;BME280;37372;52.294;5.152;2022-09-13T12:09:31;101130.00;;;19.71;77.68
51289;BME280;37372;52.294;5.152;2022-09-13T12:12:04;101132.78;;;19.43;75.57
51289;BME280;37372;52.294;5.152;2022-09-13T12:14:43;101135.44;;;19.28;76.55
51289;BME280;37372;52.294;5.152;2022-09-13T12:17:30;101148.22;;;19.24;76.18
51289;BME280;37372;52.294;5.152;2022-09-13T12:20:00;101142.38;;;19.27;76.72
51289;BME280;37372;52.294;5.152;2022-09-13T12:22:29;101148.06;;;19.27;76.01
51289;BME280;37372;52.294;5.152;2022-09-13T12:24:58;101140.69;;;19.48;74.93
51289;BME280;37372;52.294;5.152;2022-09-13T12:27:38;101146.09;;;19.65;74.41
51289;BME280;37372;52.294;5.152;2022-09-13T12:30:20;101141.06;;;19.69;74.25
51289;BME280;37372;52.294;5.152;2022-09-13T12:32:46;101151.53;;;19.81;73.69
51289;BME280;37372;52.294;5.152;2022-09-13T12:35:27;101155.31;;;19.78;71.07
51289;BME280;37372;52.294;5.152;2022-09-13T12:38:21;101158.66;;;19.86;68.32
51289;BME280;37372;52.294;5.152;2022-09-13T12:43:56;101161.53;;;19.95;69.33
51289;BME280;37372;52.294;5.152;2022-09-13T12:46:55;101160.72;;;19.94;68.96
51289;BME280;37372;52.294;5.152;2022-09-13T12:52:47;101158.81;;;20.01;67.46
51289;BME280;37372;52.294;5.152;2022-09-13T12:58:33;101162.00;;;20.03;70.58
51289;BME280;37372;52.294;5.152;2022-09-13T13:03:40;101154.69;;;19.83;68.34
51289;BME280;37372;52.294;5.152;2022-09-13T13:06:32;101153.13;;;19.82;69.69
51289;BME280;37372;52.294;5.152;2022-09-13T13:09:02;101148.06;;;19.95;67.57
51289;BME280;37372;52.294;5.152;2022-09-13T13:11:41;101143.31;;;20.02;66.70
51289;BME280;37372;52.294;5.152;2022-09-13T13:14:28;101137.16;;;20.22;68.19
51289;BME280;37372;52.294;5.152;2022-09-13T13:16:53;101143.31;;;20.29;68.63
51289;BME280;37372;52.294;5.152;2022-09-13T13:19:34;101144.91;;;20.21;66.02
51289;BME280;37372;52.294;5.152;2022-09-13T13:41:57;101133.03;;;19.67;70.82
51289;BME280;37372;52.294;5.152;2022-09-13T13:46:50;101152.19;;;19.85;67.27
51289;BME280;37372;52.294;5.152;2022-09-13T13:57:31;101151.69;;;20.14;68.49
51289;BME280;37372;52.294;5.152;2022-09-13T14:00:18;101148.72;;;20.18;65.40
51289;BME280;37372;52.294;5.152;2022-09-13T14:05:38;101153.88;;;20.47;66.16
51289;BME280;37372;52.294;5.152;2022-09-13T14:13:53;101150.25;;;20.65;64.52
51289;BME280;37372;52.294;5.152;2022-09-13T14:16:26;101145.44;;;20.80;64.64
51289;BME280;37372;52.294;5.152;2022-09-13T14:19:14;101150.88;;;20.69;63.92
51289;BME280;37372;52.294;5.152;2022-09-13T14:21:41;101144.09;;;20.57;63.29
51289;BME280;37372;52.294;5.152;2022-09-13T14:24:36;101133.97;;;20.38;64.43
51289;BME280;37372;52.294;5.152;2022-09-13T14:27:03;101125.59;;;20.16;64.72
51289;BME280;37372;52.294;5.152;2022-09-13T14:29:29;101125.91;;;20.46;67.50
51289;BME280;37372;52.294;5.152;2022-09-13T14:32:05;101135.03;;;20.68;65.60
51289;BME280;37372;52.294;5.152;2022-09-13T14:34:34;101144.84;;;20.76;64.13
51289;BME280;37372;52.294;5.152;2022-09-13T14:37:03;101142.59;;;20.90;65.04
51289;BME280;37372;52.294;5.152;2022-09-13T14:39:29;101153.19;;;20.89;64.90
51289;BME280;37372;52.294;5.152;2022-09-13T14:42:10;101152.22;;;20.92;62.88
51289;BME280;37372;52.294;5.152;2022-09-13T14:44:36;101154.97;;;20.68;65.06
51289;BME280;37372;52.294;5.152;2022-09-13T14:47:26;101142.94;;;20.73;64.73
51289;BME280;37372;52.294;5.152;2022-09-13T14:50:12;101149.78;;;20.57;62.95
51289;BME280;37372;52.294;5.152;2022-09-13T14:52:57;101139.69;;;20.38;64.02
51289;BME280;37372;52.294;5.152;2022-09-13T14:55:39;101137.94;;;20.22;66.54
51289;BME280;37372;52.294;5.152;2022-09-13T14:58:14;101137.63;;;20.38;65.97
51289;BME280;37372;52.294;5.152;2022-09-13T15:03:15;101145.19;;;20.42;65.05
51289;BME280;37372;52.294;5.152;2022-09-13T15:05:53;101149.94;;;20.54;66.40
51289;BME280;37372;52.294;5.152;2022-09-13T15:11:04;101146.78;;;20.43;65.64
51289;BME280;37372;52.294;5.152;2022-09-13T15:13:31;101141.38;;;20.45;64.48
51289;BME280;37372;52.294;5.152;2022-09-13T15:15:57;101135.72;;;20.35;65.31
51289;BME280;37372;52.294;5.152;2022-09-13T15:18:30;101150.25;;;20.37;65.73
51289;BME280;37372;52.294;5.152;2022-09-13T15:21:00;101140.47;;;19.92;65.39
51289;BME280;37372;52.294;5.152;2022-09-13T15:23:28;101147.13;;;19.99;65.71
51289;BME280;37372;52.294;5.152;2022-09-13T15:26:00;101128.94;;;19.96;65.24
51289;BME280;37372;52.294;5.152;2022-09-13T15:28:31;101125.91;;;20.00;68.12
51289;BME280;37372;52.294;5.152;2022-09-13T15:30:59;101127.19;;;19.99;68.53
51289;BME280;37372;52.294;5.152;2022-09-13T15:33:30;101130.19;;;20.13;67.07
51289;BME280;37372;52.294;5.152;2022-09-13T15:36:31;101125.78;;;20.12;66.37